sensor_id;sensor_type;location;lat;lon;timestamp;temperature;humidity
29237;DHT22;16266;50.866;4.398;2023-04-24T00:01:47;10.20;99.90
29237;DHT22;16266;50.866;4.398;2023-04-24T00:04:13;10.20;99.90
29237;DHT22;16266;50.866;4.398;2023-04-24T00:06:42;10.20;99.90
29237;DHT22;16266;50.866;4.398;2023-04-24T00:09:09;10.20;99.90
29237;DHT22;16266;50.866;4.398;2023-04-24T00:11:36;10.10;99.90
29237;DHT22;16266;50.866;4.398;2023-04-24T00:14:02;10.10;99.90
29237;DHT22;16266;50.866;4.398;2023-04-24T00:16:28;10.10;99.90
29237;DHT22;16266;50.866;4.398;2023-04-24T00:18:54;10.10;99.90
29237;DHT22;16266;50.866;4.398;2023-04-24T00:21:20;10.00;99.90
29237;DHT22;16266;50.866;4.398;2023-04-24T00:23:47;10.00;99.90
29237;DHT22;16266;50.866;4.398;2023-04-24T00:26:13;9.90;99.90
29237;DHT22;16266;50.866;4.398;2023-04-24T00:28:39;9.80;99.90
29237;DHT22;16266;50.866;4.398;2023-04-24T00:31:05;9.80;99.90
29237;DHT22;16266;50.866;4.398;2023-04-24T00:33:30;9.70;99.90
29237;DHT22;16266;50.866;4.398;2023-04-24T00:35:56;9.80;99.90
29237;DHT22;16266;50.866;4.398;2023-04-24T00:38:22;9.70;99.90
29237;DHT22;16266;50.866;4.398;2023-04-24T00:40:48;9.70;99.90
29237;DHT22;16266;50.866;4.398;2023-04-24T00:43:16;9.70;99.90
29237;DHT22;16266;50.866;4.398;2023-04-24T00:45:42;9.70;99.90
29237;DHT22;16266;50.866;4.398;2023-04-24T00:48:08;9.60;99.90
29237;DHT22;16266;50.866;4.398;2023-04-24T00:50:36;9.60;99.90
29237;DHT22;16266;50.866;4.398;2023-04-24T00:53:02;9.60;99.90
29237;DHT22;16266;50.866;4.398;2023-04-24T00:55:28;9.60;99.90
29237;DHT22;16266;50.866;4.398;2023-04-24T00:57:54;9.60;99.90
29237;DHT22;16266;50.866;4.398;2023-04-24T01:00:20;9.70;99.90
29237;DHT22;16266;50.866;4.398;2023-04-24T01:02:46;9.80;99.90
29237;DHT22;16266;50.866;4.398;2023-04-24T01:05:13;9.80;99.90
29237;DHT22;16266;50.866;4.398;2023-04-24T01:07:43;9.80;99.90
29237;DHT22;16266;50.866;4.398;2023-04-24T01:10:14;9.70;99.90
29237;DHT22;16266;50.866;4.398;2023-04-24T01:12:40;9.70;99.90
29237;DHT22;16266;50.866;4.398;2023-04-24T01:15:06;9.70;99.90
29237;DHT22;16266;50.866;4.398;2023-04-24T01:17:33;9.70;99.90
29237;DHT22;16266;50.866;4.398;2023-04-24T01:19:59;9.70;99.90
29237;DHT22;16266;50.866;4.398;2023-04-24T01:22:25;9.70;99.90
29237;DHT22;16266;50.866;4.398;2023-04-24T01:24:52;9.70;99.90
29237;DHT22;16266;50.866;4.398;2023-04-24T01:27:18;9.70;99.90
29237;DHT22;16266;50.866;4.398;2023-04-24T01:29:45;9.60;99.90
29237;DHT22;16266;50.866;4.398;2023-04-24T01:32:11;9.60;99.90
29237;DHT22;16266;50.866;4.398;2023-04-24T01:34:37;9.60;99.90
29237;DHT22;16266;50.866;4.398;2023-04-24T01:37:03;9.50;99.90
29237;DHT22;16266;50.866;4.398;2023-04-24T01:39:30;9.60;99.90
29237;DHT22;16266;50.866;4.398;2023-04-24T01:41:57;9.50;99.90
29237;DHT22;16266;50.866;4.398;2023-04-24T01:44:23;9.50;99.90
29237;DHT22;16266;50.866;4.398;2023-04-24T01:46:49;9.50;99.90
29237;DHT22;16266;50.866;4.398;2023-04-24T01:49:14;9.50;99.90
29237;DHT22;16266;50.866;4.398;2023-04-24T01:51:40;9.30;99.90
29237;DHT22;16266;50.866;4.398;2023-04-24T01:54:06;9.20;99.90
29237;DHT22;16266;50.866;4.398;2023-04-24T01:56:33;9.20;99.90
29237;DHT22;16266;50.866;4.398;2023-04-24T01:59:02;9.20;99.90
29237;DHT22;16266;50.866;4.398;2023-04-24T02:01:36;9.20;99.90
29237;DHT22;16266;50.866;4.398;2023-04-24T02:04:03;9.20;99.90
29237;DHT22;16266;50.866;4.398;2023-04-24T02:06:29;9.20;99.90
29237;DHT22;16266;50.866;4.398;2023-04-24T02:08:58;9.30;99.90
29237;DHT22;16266;50.866;4.398;2023-04-24T02:11:24;9.30;99.90
29237;DHT22;16266;50.866;4.398;2023-04-24T02:13:50;9.30;99.90
29237;DHT22;16266;50.866;4.398;2023-04-24T02:16:17;9.40;99.90
29237;DHT22;16266;50.866;4.398;2023-04-24T02:18:43;9.30;99.90
29237;DHT22;16266;50.866;4.398;2023-04-24T02:21:09;9.30;99.90
29237;DHT22;16266;50.866;4.398;2023-04-24T02:23:35;9.40;99.90
29237;DHT22;16266;50.866;4.398;2023-04-24T02:26:00;9.40;99.90
29237;DHT22;16266;50.866;4.398;2023-04-24T02:28:26;9.30;99.90
29237;DHT22;16266;50.866;4.398;2023-04-24T02:30:52;9.30;99.90
29237;DHT22;16266;50.866;4.398;2023-04-24T02:33:18;9.20;99.90
29237;DHT22;16266;50.866;4.398;2023-04-24T02:35:43;9.20;99.90
29237;DHT22;16266;50.866;4.398;2023-04-24T02:38:09;9.20;99.90
29237;DHT22;16266;50.866;4.398;2023-04-24T02:40:34;9.20;99.90
29237;DHT22;16266;50.866;4.398;2023-04-24T02:43:00;9.20;99.90
29237;DHT22;16266;50.866;4.398;2023-04-24T02:45:26;9.20;99.90
29237;DHT22;16266;50.866;4.398;2023-04-24T02:47:51;9.20;99.90
29237;DHT22;16266;50.866;4.398;2023-04-24T02:50:17;9.20;99.90
29237;DHT22;16266;50.866;4.398;2023-04-24T02:52:43;9.20;99.90
29237;DHT22;16266;50.866;4.398;2023-04-24T02:55:09;9.20;99.90
29237;DHT22;16266;50.866;4.398;2023-04-24T02:57:35;9.20;99.90
29237;DHT22;16266;50.866;4.398;2023-04-24T03:00:01;9.20;99.90
29237;DHT22;16266;50.866;4.398;2023-04-24T03:02:26;9.10;99.90
29237;DHT22;16266;50.866;4.398;2023-04-24T03:04:52;9.20;99.90
29237;DHT22;16266;50.866;4.398;2023-04-24T03:07:18;9.20;99.90
29237;DHT22;16266;50.866;4.398;2023-04-24T03:09:46;9.20;99.90
29237;DHT22;16266;50.866;4.398;2023-04-24T03:12:12;9.20;99.90
29237;DHT22;16266;50.866;4.398;2023-04-24T03:14:38;9.20;99.90
29237;DHT22;16266;50.866;4.398;2023-04-24T03:17:04;9.20;99.90
29237;DHT22;16266;50.866;4.398;2023-04-24T03:19:30;9.10;99.90
29237;DHT22;16266;50.866;4.398;2023-04-24T03:21:55;9.10;99.90
29237;DHT22;16266;50.866;4.398;2023-04-24T03:24:21;9.10;99.90
29237;DHT22;16266;50.866;4.398;2023-04-24T03:26:47;9.10;99.90
29237;DHT22;16266;50.866;4.398;2023-04-24T03:29:13;9.10;99.90
29237;DHT22;16266;50.866;4.398;2023-04-24T03:31:39;9.10;99.90
29237;DHT22;16266;50.866;4.398;2023-04-24T03:34:04;9.10;99.90
29237;DHT22;16266;50.866;4.398;2023-04-24T03:36:30;9.10;99.90
29237;DHT22;16266;50.866;4.398;2023-04-24T03:38:57;9.00;99.90
29237;DHT22;16266;50.866;4.398;2023-04-24T03:41:22;9.00;99.90
29237;DHT22;16266;50.866;4.398;2023-04-24T03:43:48;9.10;99.90
29237;DHT22;16266;50.866;4.398;2023-04-24T03:46:13;9.10;99.90
29237;DHT22;16266;50.866;4.398;2023-04-24T03:48:40;9.20;99.90
29237;DHT22;16266;50.866;4.398;2023-04-24T03:51:06;9.20;99.90
29237;DHT22;16266;50.866;4.398;2023-04-24T03:53:31;9.20;99.90
29237;DHT22;16266;50.866;4.398;2023-04-24T03:55:57;9.30;99.90
29237;DHT22;16266;50.866;4.398;2023-04-24T03:58:23;9.30;99.90
29237;DHT22;16266;50.866;4.398;2023-04-24T04:00:48;9.30;99.90
29237;DHT22;16266;50.866;4.398;2023-04-24T04:03:15;9.30;99.90
29237;DHT22;16266;50.866;4.398;2023-04-24T04:05:40;9.30;99.90
29237;DHT22;16266;50.866;4.398;2023-04-24T04:08:06;9.40;99.90
29237;DHT22;16266;50.866;4.398;2023-04-24T04:10:32;9.40;99.90
29237;DHT22;16266;50.866;4.398;2023-04-24T04:12:57;9.50;99.90
29237;DHT22;16266;50.866;4.398;2023-04-24T04:15:23;9.50;99.90
29237;DHT22;16266;50.866;4.398;2023-04-24T04:17:49;9.40;99.90
29237;DHT22;16266;50.866;4.398;2023-04-24T04:20:14;9.40;99.90
29237;DHT22;16266;50.866;4.398;2023-04-24T04:22:40;9.40;99.90
29237;DHT22;16266;50.866;4.398;2023-04-24T04:25:06;9.50;99.90
29237;DHT22;16266;50.866;4.398;2023-04-24T04:27:33;9.50;99.90
29237;DHT22;16266;50.866;4.398;2023-04-24T04:30:00;9.50;99.90
29237;DHT22;16266;50.866;4.398;2023-04-24T04:32:33;9.50;99.90
29237;DHT22;16266;50.866;4.398;2023-04-24T04:35:03;9.50;99.90
29237;DHT22;16266;50.866;4.398;2023-04-24T04:37:37;9.50;99.90
29237;DHT22;16266;50.866;4.398;2023-04-24T04:40:04;9.60;99.90
29237;DHT22;16266;50.866;4.398;2023-04-24T04:42:32;9.60;99.90
29237;DHT22;16266;50.866;4.398;2023-04-24T04:45:02;9.50;99.90
29237;DHT22;16266;50.866;4.398;2023-04-24T04:47:28;9.50;99.90
29237;DHT22;16266;50.866;4.398;2023-04-24T04:49:54;9.50;99.90
29237;DHT22;16266;50.866;4.398;2023-04-24T04:52:20;9.40;99.90
29237;DHT22;16266;50.866;4.398;2023-04-24T04:54:50;9.30;99.90
29237;DHT22;16266;50.866;4.398;2023-04-24T04:57:15;9.40;99.90
29237;DHT22;16266;50.866;4.398;2023-04-24T04:59:41;9.30;99.90
29237;DHT22;16266;50.866;4.398;2023-04-24T05:02:07;9.30;99.90
29237;DHT22;16266;50.866;4.398;2023-04-24T05:04:32;9.40;99.90
29237;DHT22;16266;50.866;4.398;2023-04-24T05:06:58;9.40;99.90
29237;DHT22;16266;50.866;4.398;2023-04-24T05:09:24;9.30;99.90
29237;DHT22;16266;50.866;4.398;2023-04-24T05:11:52;9.30;99.90
29237;DHT22;16266;50.866;4.398;2023-04-24T05:14:18;9.20;99.90
29237;DHT22;16266;50.866;4.398;2023-04-24T05:16:44;9.10;99.90
29237;DHT22;16266;50.866;4.398;2023-04-24T05:19:10;9.20;99.90
29237;DHT22;16266;50.866;4.398;2023-04-24T05:21:37;9.20;99.90
29237;DHT22;16266;50.866;4.398;2023-04-24T05:24:05;9.20;99.90
29237;DHT22;16266;50.866;4.398;2023-04-24T05:26:30;9.20;99.90
29237;DHT22;16266;50.866;4.398;2023-04-24T05:28:56;9.10;99.90
29237;DHT22;16266;50.866;4.398;2023-04-24T05:31:22;9.10;99.90
29237;DHT22;16266;50.866;4.398;2023-04-24T05:33:47;9.10;99.90
29237;DHT22;16266;50.866;4.398;2023-04-24T05:36:13;9.10;99.90
29237;DHT22;16266;50.866;4.398;2023-04-24T05:38:39;9.10;99.90
29237;DHT22;16266;50.866;4.398;2023-04-24T05:41:05;9.10;99.90
29237;DHT22;16266;50.866;4.398;2023-04-24T05:43:31;9.10;99.90
29237;DHT22;16266;50.866;4.398;2023-04-24T05:45:56;9.10;99.90
29237;DHT22;16266;50.866;4.398;2023-04-24T05:48:22;9.10;99.90
29237;DHT22;16266;50.866;4.398;2023-04-24T05:50:48;9.10;99.90
29237;DHT22;16266;50.866;4.398;2023-04-24T05:53:14;9.10;99.90
29237;DHT22;16266;50.866;4.398;2023-04-24T05:55:40;9.10;99.90
29237;DHT22;16266;50.866;4.398;2023-04-24T05:58:05;9.20;99.90
29237;DHT22;16266;50.866;4.398;2023-04-24T06:00:31;9.10;99.90
29237;DHT22;16266;50.866;4.398;2023-04-24T06:03:00;9.10;99.90
29237;DHT22;16266;50.866;4.398;2023-04-24T06:05:26;9.10;99.90
29237;DHT22;16266;50.866;4.398;2023-04-24T06:07:52;9.10;99.90
29237;DHT22;16266;50.866;4.398;2023-04-24T06:10:18;9.10;99.90
29237;DHT22;16266;50.866;4.398;2023-04-24T06:12:44;9.10;99.90
29237;DHT22;16266;50.866;4.398;2023-04-24T06:15:10;9.10;99.90
29237;DHT22;16266;50.866;4.398;2023-04-24T06:17:35;9.10;99.90
29237;DHT22;16266;50.866;4.398;2023-04-24T06:20:01;9.10;99.90
29237;DHT22;16266;50.866;4.398;2023-04-24T06:22:30;9.20;99.90
29237;DHT22;16266;50.866;4.398;2023-04-24T06:24:56;9.20;99.90
29237;DHT22;16266;50.866;4.398;2023-04-24T06:27:22;9.20;99.90
29237;DHT22;16266;50.866;4.398;2023-04-24T06:29:47;9.20;99.90
29237;DHT22;16266;50.866;4.398;2023-04-24T06:32:22;9.20;99.90
29237;DHT22;16266;50.866;4.398;2023-04-24T06:34:49;9.10;99.90
29237;DHT22;16266;50.866;4.398;2023-04-24T06:37:16;9.10;99.90
29237;DHT22;16266;50.866;4.398;2023-04-24T06:39:42;9.20;99.90
29237;DHT22;16266;50.866;4.398;2023-04-24T06:42:08;9.20;99.90
29237;DHT22;16266;50.866;4.398;2023-04-24T06:44:35;9.20;99.90
29237;DHT22;16266;50.866;4.398;2023-04-24T06:47:07;9.30;99.90
29237;DHT22;16266;50.866;4.398;2023-04-24T06:49:34;9.30;99.90
29237;DHT22;16266;50.866;4.398;2023-04-24T06:52:00;9.40;99.90
29237;DHT22;16266;50.866;4.398;2023-04-24T06:54:26;9.50;99.90
29237;DHT22;16266;50.866;4.398;2023-04-24T06:56:52;9.50;99.90
29237;DHT22;16266;50.866;4.398;2023-04-24T06:59:17;9.70;99.90
29237;DHT22;16266;50.866;4.398;2023-04-24T07:01:43;9.90;99.90
29237;DHT22;16266;50.866;4.398;2023-04-24T07:04:09;9.90;99.90
29237;DHT22;16266;50.866;4.398;2023-04-24T07:06:35;9.90;99.90
29237;DHT22;16266;50.866;4.398;2023-04-24T07:09:01;9.90;99.90
29237;DHT22;16266;50.866;4.398;2023-04-24T07:11:27;9.80;99.90
29237;DHT22;16266;50.866;4.398;2023-04-24T07:13:55;9.80;99.90
29237;DHT22;16266;50.866;4.398;2023-04-24T07:16:21;9.80;99.90
29237;DHT22;16266;50.866;4.398;2023-04-24T07:18:46;9.70;99.90
29237;DHT22;16266;50.866;4.398;2023-04-24T07:21:12;9.80;99.90
29237;DHT22;16266;50.866;4.398;2023-04-24T07:23:38;9.80;99.90
29237;DHT22;16266;50.866;4.398;2023-04-24T07:26:04;10.10;99.90
29237;DHT22;16266;50.866;4.398;2023-04-24T07:28:30;10.30;99.90
29237;DHT22;16266;50.866;4.398;2023-04-24T07:30:57;10.50;99.90
29237;DHT22;16266;50.866;4.398;2023-04-24T07:33:24;10.50;99.90
29237;DHT22;16266;50.866;4.398;2023-04-24T07:35:50;10.60;99.90
29237;DHT22;16266;50.866;4.398;2023-04-24T07:38:15;10.70;99.90
29237;DHT22;16266;50.866;4.398;2023-04-24T07:40:41;10.80;99.90
29237;DHT22;16266;50.866;4.398;2023-04-24T07:43:07;10.90;99.90
29237;DHT22;16266;50.866;4.398;2023-04-24T07:45:32;11.10;99.90
29237;DHT22;16266;50.866;4.398;2023-04-24T07:48:02;12.00;99.90
29237;DHT22;16266;50.866;4.398;2023-04-24T07:50:28;12.40;99.90
29237;DHT22;16266;50.866;4.398;2023-04-24T07:52:54;12.20;99.90
29237;DHT22;16266;50.866;4.398;2023-04-24T07:55:20;11.80;99.90
29237;DHT22;16266;50.866;4.398;2023-04-24T07:57:45;11.50;99.90
29237;DHT22;16266;50.866;4.398;2023-04-24T08:00:11;11.20;99.90
29237;DHT22;16266;50.866;4.398;2023-04-24T08:02:37;11.20;99.90
29237;DHT22;16266;50.866;4.398;2023-04-24T08:05:03;11.40;99.90
29237;DHT22;16266;50.866;4.398;2023-04-24T08:07:29;11.80;99.90
29237;DHT22;16266;50.866;4.398;2023-04-24T08:09:55;12.10;99.90
29237;DHT22;16266;50.866;4.398;2023-04-24T08:12:21;11.90;99.90
29237;DHT22;16266;50.866;4.398;2023-04-24T08:14:46;11.80;99.90
29237;DHT22;16266;50.866;4.398;2023-04-24T08:17:12;11.70;99.90
29237;DHT22;16266;50.866;4.398;2023-04-24T08:19:39;11.60;99.90
29237;DHT22;16266;50.866;4.398;2023-04-24T08:22:07;11.70;99.90
29237;DHT22;16266;50.866;4.398;2023-04-24T08:24:33;11.80;99.90
29237;DHT22;16266;50.866;4.398;2023-04-24T08:26:59;12.10;99.90
29237;DHT22;16266;50.866;4.398;2023-04-24T08:29:24;12.50;99.90
29237;DHT22;16266;50.866;4.398;2023-04-24T08:31:50;12.90;99.90
29237;DHT22;16266;50.866;4.398;2023-04-24T08:34:16;12.80;99.90
29237;DHT22;16266;50.866;4.398;2023-04-24T08:36:41;12.80;99.90
29237;DHT22;16266;50.866;4.398;2023-04-24T08:39:07;13.20;99.90
29237;DHT22;16266;50.866;4.398;2023-04-24T08:41:34;13.40;99.90
29237;DHT22;16266;50.866;4.398;2023-04-24T08:44:02;13.30;99.90
29237;DHT22;16266;50.866;4.398;2023-04-24T08:46:28;13.00;99.90
29237;DHT22;16266;50.866;4.398;2023-04-24T08:48:56;13.30;99.90
29237;DHT22;16266;50.866;4.398;2023-04-24T08:51:22;13.70;99.90
29237;DHT22;16266;50.866;4.398;2023-04-24T08:53:52;14.30;99.90
29237;DHT22;16266;50.866;4.398;2023-04-24T08:56:19;14.60;99.90
29237;DHT22;16266;50.866;4.398;2023-04-24T08:58:45;15.40;99.90
29237;DHT22;16266;50.866;4.398;2023-04-24T09:01:12;16.40;99.90
29237;DHT22;16266;50.866;4.398;2023-04-24T09:03:38;17.30;99.90
29237;DHT22;16266;50.866;4.398;2023-04-24T09:06:06;18.20;99.90
29237;DHT22;16266;50.866;4.398;2023-04-24T09:08:33;19.00;99.90
29237;DHT22;16266;50.866;4.398;2023-04-24T09:10:59;20.80;99.90
29237;DHT22;16266;50.866;4.398;2023-04-24T09:13:28;21.50;99.90
29237;DHT22;16266;50.866;4.398;2023-04-24T09:15:53;23.00;99.90
29237;DHT22;16266;50.866;4.398;2023-04-24T09:18:19;22.40;99.90
29237;DHT22;16266;50.866;4.398;2023-04-24T09:23:28;19.90;99.90
29237;DHT22;16266;50.866;4.398;2023-04-24T09:25:55;18.20;99.90
29237;DHT22;16266;50.866;4.398;2023-04-24T09:28:37;19.30;99.90
29237;DHT22;16266;50.866;4.398;2023-04-24T09:31:13;19.50;99.90
29237;DHT22;16266;50.866;4.398;2023-04-24T09:33:40;18.10;99.90
29237;DHT22;16266;50.866;4.398;2023-04-24T09:36:06;17.10;99.90
29237;DHT22;16266;50.866;4.398;2023-04-24T09:38:35;16.20;99.90
29237;DHT22;16266;50.866;4.398;2023-04-24T09:41:13;16.00;99.90
29237;DHT22;16266;50.866;4.398;2023-04-24T09:43:39;15.80;99.90
29237;DHT22;16266;50.866;4.398;2023-04-24T09:46:08;15.50;99.90
29237;DHT22;16266;50.866;4.398;2023-04-24T09:48:35;15.70;99.90
29237;DHT22;16266;50.866;4.398;2023-04-24T09:51:03;17.10;99.90
29237;DHT22;16266;50.866;4.398;2023-04-24T09:53:30;17.80;99.90
29237;DHT22;16266;50.866;4.398;2023-04-24T09:55:56;18.10;99.90
29237;DHT22;16266;50.866;4.398;2023-04-24T09:58:28;17.70;99.90
29237;DHT22;16266;50.866;4.398;2023-04-24T10:00:55;17.60;99.90
29237;DHT22;16266;50.866;4.398;2023-04-24T10:03:24;18.50;99.90
29237;DHT22;16266;50.866;4.398;2023-04-24T10:05:52;19.00;99.90
29237;DHT22;16266;50.866;4.398;2023-04-24T10:08:18;18.60;99.90
29237;DHT22;16266;50.866;4.398;2023-04-24T10:10:45;18.60;99.90
29237;DHT22;16266;50.866;4.398;2023-04-24T10:13:13;18.30;99.90
29237;DHT22;16266;50.866;4.398;2023-04-24T10:15:40;18.40;99.90
29237;DHT22;16266;50.866;4.398;2023-04-24T10:18:07;20.00;99.90
29237;DHT22;16266;50.866;4.398;2023-04-24T10:20:35;21.70;99.80
29237;DHT22;16266;50.866;4.398;2023-04-24T10:23:02;21.90;98.60
29237;DHT22;16266;50.866;4.398;2023-04-24T10:25:32;20.80;96.60
29237;DHT22;16266;50.866;4.398;2023-04-24T10:27:59;19.40;99.90
29237;DHT22;16266;50.866;4.398;2023-04-24T10:30:34;18.50;99.90
29237;DHT22;16266;50.866;4.398;2023-04-24T10:33:04;17.70;99.90
29237;DHT22;16266;50.866;4.398;2023-04-24T10:35:32;17.50;99.90
29237;DHT22;16266;50.866;4.398;2023-04-24T10:38:05;17.80;99.90
29237;DHT22;16266;50.866;4.398;2023-04-24T10:40:33;19.80;99.90
29237;DHT22;16266;50.866;4.398;2023-04-24T10:43:01;22.60;96.30
29237;DHT22;16266;50.866;4.398;2023-04-24T10:45:27;23.00;91.80
29237;DHT22;16266;50.866;4.398;2023-04-24T10:47:57;21.80;91.70
29237;DHT22;16266;50.866;4.398;2023-04-24T10:50:25;21.30;92.50
29237;DHT22;16266;50.866;4.398;2023-04-24T10:52:51;21.10;94.40
29237;DHT22;16266;50.866;4.398;2023-04-24T10:58:09;19.40;98.20
29237;DHT22;16266;50.866;4.398;2023-04-24T11:00:40;18.80;99.70
29237;DHT22;16266;50.866;4.398;2023-04-24T11:03:25;18.00;99.90
29237;DHT22;16266;50.866;4.398;2023-04-24T11:06:00;18.20;99.90
29237;DHT22;16266;50.866;4.398;2023-04-24T11:08:43;18.40;99.90
29237;DHT22;16266;50.866;4.398;2023-04-24T11:11:12;18.00;99.90
29237;DHT22;16266;50.866;4.398;2023-04-24T11:27:17;19.80;97.50
29237;DHT22;16266;50.866;4.398;2023-04-24T11:29:51;19.90;96.60
29237;DHT22;16266;50.866;4.398;2023-04-24T11:35:01;19.20;96.30
29237;DHT22;16266;50.866;4.398;2023-04-24T11:37:33;19.10;97.30
29237;DHT22;16266;50.866;4.398;2023-04-24T11:39:59;18.80;96.80
29237;DHT22;16266;50.866;4.398;2023-04-24T11:42:25;19.00;96.00
29237;DHT22;16266;50.866;4.398;2023-04-24T11:44:55;19.30;96.70
29237;DHT22;16266;50.866;4.398;2023-04-24T11:47:28;19.40;97.10
29237;DHT22;16266;50.866;4.398;2023-04-24T11:49:54;20.10;95.60
29237;DHT22;16266;50.866;4.398;2023-04-24T11:52:20;19.90;95.50
29237;DHT22;16266;50.866;4.398;2023-04-24T11:54:50;19.30;95.60
29237;DHT22;16266;50.866;4.398;2023-04-24T11:57:16;18.80;97.30
29237;DHT22;16266;50.866;4.398;2023-04-24T11:59:42;18.90;99.20
29237;DHT22;16266;50.866;4.398;2023-04-24T12:02:08;19.60;97.70
29237;DHT22;16266;50.866;4.398;2023-04-24T12:04:40;19.30;97.40
29237;DHT22;16266;50.866;4.398;2023-04-24T12:07:06;19.00;98.30
29237;DHT22;16266;50.866;4.398;2023-04-24T12:09:41;18.80;98.30
29237;DHT22;16266;50.866;4.398;2023-04-24T12:12:08;18.50;99.70
29237;DHT22;16266;50.866;4.398;2023-04-24T12:14:42;18.20;99.90
29237;DHT22;16266;50.866;4.398;2023-04-24T12:17:08;18.40;98.80
29237;DHT22;16266;50.866;4.398;2023-04-24T12:19:34;19.60;97.50
29237;DHT22;16266;50.866;4.398;2023-04-24T12:22:01;21.60;92.50
29237;DHT22;16266;50.866;4.398;2023-04-24T12:24:28;22.90;86.40
29237;DHT22;16266;50.866;4.398;2023-04-24T12:26:54;24.70;75.20
29237;DHT22;16266;50.866;4.398;2023-04-24T12:29:24;25.00;72.00
29237;DHT22;16266;50.866;4.398;2023-04-24T12:31:51;24.50;65.00
29237;DHT22;16266;50.866;4.398;2023-04-24T12:34:24;24.80;65.00
29237;DHT22;16266;50.866;4.398;2023-04-24T12:36:50;24.30;65.60
29237;DHT22;16266;50.866;4.398;2023-04-24T12:39:20;25.40;62.10
29237;DHT22;16266;50.866;4.398;2023-04-24T12:41:58;24.90;58.60
29237;DHT22;16266;50.866;4.398;2023-04-24T12:44:34;23.90;64.20
29237;DHT22;16266;50.866;4.398;2023-04-24T12:47:01;23.20;64.10
29237;DHT22;16266;50.866;4.398;2023-04-24T12:49:29;22.60;64.10
29237;DHT22;16266;50.866;4.398;2023-04-24T12:51:55;23.10;65.20
29237;DHT22;16266;50.866;4.398;2023-04-24T12:54:22;23.00;65.80
29237;DHT22;16266;50.866;4.398;2023-04-24T12:56:48;24.80;63.00
29237;DHT22;16266;50.866;4.398;2023-04-24T12:59:13;25.10;57.90
29237;DHT22;16266;50.866;4.398;2023-04-24T13:01:39;24.20;59.00
29237;DHT22;16266;50.866;4.398;2023-04-24T13:04:05;23.60;62.40
29237;DHT22;16266;50.866;4.398;2023-04-24T13:06:31;22.00;64.40
29237;DHT22;16266;50.866;4.398;2023-04-24T13:08:57;20.70;71.80
29237;DHT22;16266;50.866;4.398;2023-04-24T13:11:24;19.70;80.30
29237;DHT22;16266;50.866;4.398;2023-04-24T13:13:50;19.50;81.70
29237;DHT22;16266;50.866;4.398;2023-04-24T13:16:15;18.50;87.00
29237;DHT22;16266;50.866;4.398;2023-04-24T13:18:41;17.80;91.20
29237;DHT22;16266;50.866;4.398;2023-04-24T13:21:07;17.60;93.10
29237;DHT22;16266;50.866;4.398;2023-04-24T13:23:32;17.10;94.00
29237;DHT22;16266;50.866;4.398;2023-04-24T13:25:58;17.20;96.20
29237;DHT22;16266;50.866;4.398;2023-04-24T13:28:27;17.40;95.10
29237;DHT22;16266;50.866;4.398;2023-04-24T13:30:53;17.80;94.30
29237;DHT22;16266;50.866;4.398;2023-04-24T13:33:19;18.10;94.90
29237;DHT22;16266;50.866;4.398;2023-04-24T13:35:45;18.50;93.70
29237;DHT22;16266;50.866;4.398;2023-04-24T13:38:10;18.40;91.60
29237;DHT22;16266;50.866;4.398;2023-04-24T13:40:36;18.30;92.10
29237;DHT22;16266;50.866;4.398;2023-04-24T13:43:02;18.20;92.40
29237;DHT22;16266;50.866;4.398;2023-04-24T13:45:28;18.50;92.70
29237;DHT22;16266;50.866;4.398;2023-04-24T13:47:54;18.20;90.50
29237;DHT22;16266;50.866;4.398;2023-04-24T13:50:20;18.10;91.50
29237;DHT22;16266;50.866;4.398;2023-04-24T13:52:46;17.80;91.30
29237;DHT22;16266;50.866;4.398;2023-04-24T13:55:11;17.80;91.90
29237;DHT22;16266;50.866;4.398;2023-04-24T13:57:37;18.00;92.30
29237;DHT22;16266;50.866;4.398;2023-04-24T14:00:03;18.40;92.10
29237;DHT22;16266;50.866;4.398;2023-04-24T14:02:29;18.80;90.80
29237;DHT22;16266;50.866;4.398;2023-04-24T14:04:55;19.30;87.90
29237;DHT22;16266;50.866;4.398;2023-04-24T14:07:21;19.60;82.40
29237;DHT22;16266;50.866;4.398;2023-04-24T14:09:47;20.00;81.10
29237;DHT22;16266;50.866;4.398;2023-04-24T14:12:12;19.30;82.10
29237;DHT22;16266;50.866;4.398;2023-04-24T14:14:39;18.70;82.80
29237;DHT22;16266;50.866;4.398;2023-04-24T14:17:05;18.20;83.00
29237;DHT22;16266;50.866;4.398;2023-04-24T14:19:31;18.70;87.80
29237;DHT22;16266;50.866;4.398;2023-04-24T14:21:56;18.90;86.50
29237;DHT22;16266;50.866;4.398;2023-04-24T14:24:23;18.30;90.60
29237;DHT22;16266;50.866;4.398;2023-04-24T14:26:49;17.70;92.10
29237;DHT22;16266;50.866;4.398;2023-04-24T14:29:15;17.40;93.70
29237;DHT22;16266;50.866;4.398;2023-04-24T14:31:42;16.90;94.70
29237;DHT22;16266;50.866;4.398;2023-04-24T14:34:09;16.70;95.70
29237;DHT22;16266;50.866;4.398;2023-04-24T14:36:35;16.50;97.30
29237;DHT22;16266;50.866;4.398;2023-04-24T14:39:01;16.30;96.00
29237;DHT22;16266;50.866;4.398;2023-04-24T14:41:31;16.10;97.30
29237;DHT22;16266;50.866;4.398;2023-04-24T14:43:59;16.10;98.70
29237;DHT22;16266;50.866;4.398;2023-04-24T14:46:25;16.20;97.80
29237;DHT22;16266;50.866;4.398;2023-04-24T14:48:51;16.10;99.00
29237;DHT22;16266;50.866;4.398;2023-04-24T14:51:17;16.00;98.90
29237;DHT22;16266;50.866;4.398;2023-04-24T14:53:42;16.30;99.00
29237;DHT22;16266;50.866;4.398;2023-04-24T14:56:08;16.40;97.40
29237;DHT22;16266;50.866;4.398;2023-04-24T14:58:34;16.50;97.90
29237;DHT22;16266;50.866;4.398;2023-04-24T15:01:00;16.50;99.30
29237;DHT22;16266;50.866;4.398;2023-04-24T15:03:25;16.60;98.20
29237;DHT22;16266;50.866;4.398;2023-04-24T15:05:52;16.50;97.10
29237;DHT22;16266;50.866;4.398;2023-04-24T15:08:17;16.40;97.30
29237;DHT22;16266;50.866;4.398;2023-04-24T15:10:43;16.60;97.20
29237;DHT22;16266;50.866;4.398;2023-04-24T15:13:10;16.80;97.80
29237;DHT22;16266;50.866;4.398;2023-04-24T15:15:35;16.50;96.30
29237;DHT22;16266;50.866;4.398;2023-04-24T15:18:02;16.10;96.00
29237;DHT22;16266;50.866;4.398;2023-04-24T15:20:28;15.90;98.40
29237;DHT22;16266;50.866;4.398;2023-04-24T15:22:53;15.80;96.40
29237;DHT22;16266;50.866;4.398;2023-04-24T15:25:19;15.70;97.80
29237;DHT22;16266;50.866;4.398;2023-04-24T15:27:45;15.90;97.20
29237;DHT22;16266;50.866;4.398;2023-04-24T15:30:12;15.80;97.60
29237;DHT22;16266;50.866;4.398;2023-04-24T15:32:38;15.80;98.60
29237;DHT22;16266;50.866;4.398;2023-04-24T15:35:05;15.80;98.50
29237;DHT22;16266;50.866;4.398;2023-04-24T15:37:31;15.80;98.10
29237;DHT22;16266;50.866;4.398;2023-04-24T15:39:57;15.60;98.60
29237;DHT22;16266;50.866;4.398;2023-04-24T15:42:22;15.50;98.80
29237;DHT22;16266;50.866;4.398;2023-04-24T15:44:48;15.40;99.20
29237;DHT22;16266;50.866;4.398;2023-04-24T15:47:14;15.30;99.90
29237;DHT22;16266;50.866;4.398;2023-04-24T15:49:40;15.60;99.90
29237;DHT22;16266;50.866;4.398;2023-04-24T15:52:05;15.40;99.90
29237;DHT22;16266;50.866;4.398;2023-04-24T15:54:31;15.30;99.50
29237;DHT22;16266;50.866;4.398;2023-04-24T15:56:57;15.30;99.90